sensor_id;sensor_type;location;lat;lon;timestamp;temperature;humidity
13684;DHT22;6914;53.552;9.908;2023-05-20T00:02:22;11.20;99.90
13684;DHT22;6914;53.552;9.908;2023-05-20T00:04:49;11.50;99.90
13684;DHT22;6914;53.552;9.908;2023-05-20T00:07:16;11.20;99.90
13684;DHT22;6914;53.552;9.908;2023-05-20T00:09:46;11.30;99.90
13684;DHT22;6914;53.552;9.908;2023-05-20T00:12:13;11.20;99.90
13684;DHT22;6914;53.552;9.908;2023-05-20T00:14:41;11.50;99.90
13684;DHT22;6914;53.552;9.908;2023-05-20T00:17:08;11.20;99.90
13684;DHT22;6914;53.552;9.908;2023-05-20T00:19:35;10.90;99.90
13684;DHT22;6914;53.552;9.908;2023-05-20T00:22:02;11.10;99.90
13684;DHT22;6914;53.552;9.908;2023-05-20T00:24:29;11.00;99.90
13684;DHT22;6914;53.552;9.908;2023-05-20T00:26:58;11.00;99.90
13684;DHT22;6914;53.552;9.908;2023-05-20T00:29:25;10.90;99.90
13684;DHT22;6914;53.552;9.908;2023-05-20T00:31:53;11.00;99.90
13684;DHT22;6914;53.552;9.908;2023-05-20T00:34:20;11.10;99.90
13684;DHT22;6914;53.552;9.908;2023-05-20T00:36:52;11.00;99.90
13684;DHT22;6914;53.552;9.908;2023-05-20T00:39:23;11.40;99.90
13684;DHT22;6914;53.552;9.908;2023-05-20T00:41:51;11.00;99.90
13684;DHT22;6914;53.552;9.908;2023-05-20T00:44:24;11.10;99.90
13684;DHT22;6914;53.552;9.908;2023-05-20T00:46:51;11.20;99.90
13684;DHT22;6914;53.552;9.908;2023-05-20T00:49:25;11.00;99.90
13684;DHT22;6914;53.552;9.908;2023-05-20T00:51:52;10.90;99.90
13684;DHT22;6914;53.552;9.908;2023-05-20T00:54:20;10.80;99.90
13684;DHT22;6914;53.552;9.908;2023-05-20T00:56:48;10.90;99.90
13684;DHT22;6914;53.552;9.908;2023-05-20T00:59:16;10.80;99.90
13684;DHT22;6914;53.552;9.908;2023-05-20T01:01:48;10.90;99.90
13684;DHT22;6914;53.552;9.908;2023-05-20T01:04:16;10.90;99.90
13684;DHT22;6914;53.552;9.908;2023-05-20T01:06:46;10.90;99.90
13684;DHT22;6914;53.552;9.908;2023-05-20T01:09:14;10.90;99.90
13684;DHT22;6914;53.552;9.908;2023-05-20T01:11:46;10.80;99.90
13684;DHT22;6914;53.552;9.908;2023-05-20T01:14:15;10.70;99.90
13684;DHT22;6914;53.552;9.908;2023-05-20T01:16:49;10.80;99.90
13684;DHT22;6914;53.552;9.908;2023-05-20T01:19:33;10.70;99.90
13684;DHT22;6914;53.552;9.908;2023-05-20T01:22:02;10.60;99.90
13684;DHT22;6914;53.552;9.908;2023-05-20T01:24:32;10.70;99.90
13684;DHT22;6914;53.552;9.908;2023-05-20T01:26:59;10.60;99.90
13684;DHT22;6914;53.552;9.908;2023-05-20T01:29:26;10.70;99.90
13684;DHT22;6914;53.552;9.908;2023-05-20T01:31:53;10.70;99.90
13684;DHT22;6914;53.552;9.908;2023-05-20T01:34:27;10.80;99.90
13684;DHT22;6914;53.552;9.908;2023-05-20T01:36:54;10.60;99.90
13684;DHT22;6914;53.552;9.908;2023-05-20T01:39:23;10.50;99.90
13684;DHT22;6914;53.552;9.908;2023-05-20T01:41:52;10.60;99.90
13684;DHT22;6914;53.552;9.908;2023-05-20T01:44:21;10.50;99.90
13684;DHT22;6914;53.552;9.908;2023-05-20T01:46:49;10.90;99.90
13684;DHT22;6914;53.552;9.908;2023-05-20T01:49:19;10.40;99.90
13684;DHT22;6914;53.552;9.908;2023-05-20T01:51:47;10.50;99.90
13684;DHT22;6914;53.552;9.908;2023-05-20T01:54:17;10.30;99.90
13684;DHT22;6914;53.552;9.908;2023-05-20T01:56:46;10.30;99.90
13684;DHT22;6914;53.552;9.908;2023-05-20T01:59:14;10.40;99.90
13684;DHT22;6914;53.552;9.908;2023-05-20T02:01:43;10.30;99.90
13684;DHT22;6914;53.552;9.908;2023-05-20T02:04:10;10.30;99.90
13684;DHT22;6914;53.552;9.908;2023-05-20T02:06:39;10.20;99.90
13684;DHT22;6914;53.552;9.908;2023-05-20T02:09:06;10.00;99.90
13684;DHT22;6914;53.552;9.908;2023-05-20T02:11:33;11.60;99.90
13684;DHT22;6914;53.552;9.908;2023-05-20T02:14:00;10.20;99.90
13684;DHT22;6914;53.552;9.908;2023-05-20T02:16:29;10.30;99.90
13684;DHT22;6914;53.552;9.908;2023-05-20T02:18:56;10.10;99.90
13684;DHT22;6914;53.552;9.908;2023-05-20T02:21:24;10.10;99.90
13684;DHT22;6914;53.552;9.908;2023-05-20T02:23:52;10.50;99.90
13684;DHT22;6914;53.552;9.908;2023-05-20T02:26:19;10.00;99.90
13684;DHT22;6914;53.552;9.908;2023-05-20T02:28:48;10.10;99.90
13684;DHT22;6914;53.552;9.908;2023-05-20T02:31:16;9.80;99.90
13684;DHT22;6914;53.552;9.908;2023-05-20T02:33:45;10.30;99.90
13684;DHT22;6914;53.552;9.908;2023-05-20T02:36:12;10.10;99.90
13684;DHT22;6914;53.552;9.908;2023-05-20T02:38:39;10.50;99.90
13684;DHT22;6914;53.552;9.908;2023-05-20T02:41:06;11.10;99.90
13684;DHT22;6914;53.552;9.908;2023-05-20T02:43:34;10.00;99.90
13684;DHT22;6914;53.552;9.908;2023-05-20T02:46:02;10.00;99.90
13684;DHT22;6914;53.552;9.908;2023-05-20T02:48:29;10.10;99.90
13684;DHT22;6914;53.552;9.908;2023-05-20T02:50:58;10.00;99.90
13684;DHT22;6914;53.552;9.908;2023-05-20T02:53:25;9.90;99.90
13684;DHT22;6914;53.552;9.908;2023-05-20T02:55:52;9.80;99.90
13684;DHT22;6914;53.552;9.908;2023-05-20T02:58:19;10.10;99.90
13684;DHT22;6914;53.552;9.908;2023-05-20T03:00:52;10.10;99.90
13684;DHT22;6914;53.552;9.908;2023-05-20T03:03:19;9.90;99.90
13684;DHT22;6914;53.552;9.908;2023-05-20T03:05:50;10.00;99.90
13684;DHT22;6914;53.552;9.908;2023-05-20T03:08:20;9.80;99.90
13684;DHT22;6914;53.552;9.908;2023-05-20T03:10:49;10.00;99.90
13684;DHT22;6914;53.552;9.908;2023-05-20T03:13:16;10.00;99.90
13684;DHT22;6914;53.552;9.908;2023-05-20T03:15:43;10.00;99.90
13684;DHT22;6914;53.552;9.908;2023-05-20T03:18:11;10.40;99.90
13684;DHT22;6914;53.552;9.908;2023-05-20T03:20:39;10.10;99.90
13684;DHT22;6914;53.552;9.908;2023-05-20T03:23:07;9.60;99.90
13684;DHT22;6914;53.552;9.908;2023-05-20T03:25:37;9.90;99.90
13684;DHT22;6914;53.552;9.908;2023-05-20T03:28:04;9.90;99.90
13684;DHT22;6914;53.552;9.908;2023-05-20T03:30:31;9.90;99.90
13684;DHT22;6914;53.552;9.908;2023-05-20T03:32:58;9.70;99.90
13684;DHT22;6914;53.552;9.908;2023-05-20T03:35:27;9.90;99.90
13684;DHT22;6914;53.552;9.908;2023-05-20T03:37:54;9.80;99.90
13684;DHT22;6914;53.552;9.908;2023-05-20T03:40:23;9.80;99.90
13684;DHT22;6914;53.552;9.908;2023-05-20T03:42:53;10.00;99.90
13684;DHT22;6914;53.552;9.908;2023-05-20T03:45:20;9.80;99.90
13684;DHT22;6914;53.552;9.908;2023-05-20T03:47:48;10.00;99.90
13684;DHT22;6914;53.552;9.908;2023-05-20T03:50:16;10.00;99.90
13684;DHT22;6914;53.552;9.908;2023-05-20T03:52:43;10.10;99.90
13684;DHT22;6914;53.552;9.908;2023-05-20T03:55:10;10.20;99.90
13684;DHT22;6914;53.552;9.908;2023-05-20T03:57:37;9.90;99.90
13684;DHT22;6914;53.552;9.908;2023-05-20T04:00:07;9.80;99.90
13684;DHT22;6914;53.552;9.908;2023-05-20T04:02:36;10.10;99.90
13684;DHT22;6914;53.552;9.908;2023-05-20T04:05:05;9.90;99.90
13684;DHT22;6914;53.552;9.908;2023-05-20T04:07:34;10.20;99.90
13684;DHT22;6914;53.552;9.908;2023-05-20T04:10:02;10.40;99.90
13684;DHT22;6914;53.552;9.908;2023-05-20T04:12:29;10.20;99.90
13684;DHT22;6914;53.552;9.908;2023-05-20T04:14:57;10.20;99.90
13684;DHT22;6914;53.552;9.908;2023-05-20T04:17:27;10.40;99.90
13684;DHT22;6914;53.552;9.908;2023-05-20T04:19:55;10.00;99.90
13684;DHT22;6914;53.552;9.908;2023-05-20T04:22:25;10.10;99.90
13684;DHT22;6914;53.552;9.908;2023-05-20T04:24:52;10.20;99.90
13684;DHT22;6914;53.552;9.908;2023-05-20T04:27:19;10.20;99.90
13684;DHT22;6914;53.552;9.908;2023-05-20T04:29:51;10.20;99.90
13684;DHT22;6914;53.552;9.908;2023-05-20T04:32:19;10.30;99.90
13684;DHT22;6914;53.552;9.908;2023-05-20T04:34:52;10.50;99.90
13684;DHT22;6914;53.552;9.908;2023-05-20T04:37:20;10.30;99.90
13684;DHT22;6914;53.552;9.908;2023-05-20T04:39:49;10.40;99.90
13684;DHT22;6914;53.552;9.908;2023-05-20T04:42:17;10.50;99.90
13684;DHT22;6914;53.552;9.908;2023-05-20T04:44:45;10.40;99.90
13684;DHT22;6914;53.552;9.908;2023-05-20T04:47:12;10.70;99.90
13684;DHT22;6914;53.552;9.908;2023-05-20T04:49:40;10.40;99.90
13684;DHT22;6914;53.552;9.908;2023-05-20T04:52:09;10.60;99.90
13684;DHT22;6914;53.552;9.908;2023-05-20T04:54:36;10.80;99.90
13684;DHT22;6914;53.552;9.908;2023-05-20T04:57:05;10.50;99.90
13684;DHT22;6914;53.552;9.908;2023-05-20T04:59:35;10.50;99.90
13684;DHT22;6914;53.552;9.908;2023-05-20T05:02:04;10.60;99.90
13684;DHT22;6914;53.552;9.908;2023-05-20T05:04:33;10.50;99.90
13684;DHT22;6914;53.552;9.908;2023-05-20T05:07:00;10.60;99.90
13684;DHT22;6914;53.552;9.908;2023-05-20T05:09:28;10.40;99.90
13684;DHT22;6914;53.552;9.908;2023-05-20T05:11:58;10.60;99.90
13684;DHT22;6914;53.552;9.908;2023-05-20T05:14:25;10.70;99.90
13684;DHT22;6914;53.552;9.908;2023-05-20T05:16:52;10.60;99.90
13684;DHT22;6914;53.552;9.908;2023-05-20T05:19:19;10.80;99.90
13684;DHT22;6914;53.552;9.908;2023-05-20T05:21:47;10.70;99.90
13684;DHT22;6914;53.552;9.908;2023-05-20T05:24:15;10.70;99.90
13684;DHT22;6914;53.552;9.908;2023-05-20T05:26:43;10.90;99.90
13684;DHT22;6914;53.552;9.908;2023-05-20T05:29:12;11.10;99.90
13684;DHT22;6914;53.552;9.908;2023-05-20T05:31:40;11.00;99.90
13684;DHT22;6914;53.552;9.908;2023-05-20T05:34:07;11.20;99.90
13684;DHT22;6914;53.552;9.908;2023-05-20T05:36:35;11.10;99.90
13684;DHT22;6914;53.552;9.908;2023-05-20T05:39:02;11.20;99.90
13684;DHT22;6914;53.552;9.908;2023-05-20T05:41:29;11.20;99.90
13684;DHT22;6914;53.552;9.908;2023-05-20T05:43:57;10.50;99.90
13684;DHT22;6914;53.552;9.908;2023-05-20T05:46:27;11.40;99.90
13684;DHT22;6914;53.552;9.908;2023-05-20T05:48:54;11.40;99.90
13684;DHT22;6914;53.552;9.908;2023-05-20T05:51:27;11.60;99.90
13684;DHT22;6914;53.552;9.908;2023-05-20T05:53:56;11.70;99.90
13684;DHT22;6914;53.552;9.908;2023-05-20T05:56:23;11.60;99.90
13684;DHT22;6914;53.552;9.908;2023-05-20T05:58:57;11.60;99.90
13684;DHT22;6914;53.552;9.908;2023-05-20T06:01:26;11.90;99.90
13684;DHT22;6914;53.552;9.908;2023-05-20T06:03:53;11.80;99.90
13684;DHT22;6914;53.552;9.908;2023-05-20T06:06:22;12.00;99.90
13684;DHT22;6914;53.552;9.908;2023-05-20T06:08:53;12.10;99.90
13684;DHT22;6914;53.552;9.908;2023-05-20T06:11:20;11.90;99.90
13684;DHT22;6914;53.552;9.908;2023-05-20T06:13:49;13.10;99.90
13684;DHT22;6914;53.552;9.908;2023-05-20T06:16:17;12.90;99.90
13684;DHT22;6914;53.552;9.908;2023-05-20T06:18:45;12.20;99.90
13684;DHT22;6914;53.552;9.908;2023-05-20T06:21:14;12.20;99.90
13684;DHT22;6914;53.552;9.908;2023-05-20T06:23:43;12.20;99.90
13684;DHT22;6914;53.552;9.908;2023-05-20T06:26:10;12.40;99.90
13684;DHT22;6914;53.552;9.908;2023-05-20T06:28:37;12.30;99.90
13684;DHT22;6914;53.552;9.908;2023-05-20T06:31:04;12.50;99.90
13684;DHT22;6914;53.552;9.908;2023-05-20T06:33:33;12.60;99.90
13684;DHT22;6914;53.552;9.908;2023-05-20T06:36:02;12.60;99.90
13684;DHT22;6914;53.552;9.908;2023-05-20T06:38:30;12.80;99.90
13684;DHT22;6914;53.552;9.908;2023-05-20T06:40:56;12.70;99.90
13684;DHT22;6914;53.552;9.908;2023-05-20T06:43:28;12.90;99.90
13684;DHT22;6914;53.552;9.908;2023-05-20T06:45:56;12.90;99.90
13684;DHT22;6914;53.552;9.908;2023-05-20T06:48:24;12.90;99.90
13684;DHT22;6914;53.552;9.908;2023-05-20T06:50:52;13.20;99.90
13684;DHT22;6914;53.552;9.908;2023-05-20T06:53:20;13.30;99.90
13684;DHT22;6914;53.552;9.908;2023-05-20T06:55:48;13.30;99.90
13684;DHT22;6914;53.552;9.908;2023-05-20T06:58:15;13.50;99.90
13684;DHT22;6914;53.552;9.908;2023-05-20T07:00:42;13.60;99.90
13684;DHT22;6914;53.552;9.908;2023-05-20T07:03:08;13.70;99.90
13684;DHT22;6914;53.552;9.908;2023-05-20T07:05:36;13.80;99.90
13684;DHT22;6914;53.552;9.908;2023-05-20T07:08:04;13.50;99.90
13684;DHT22;6914;53.552;9.908;2023-05-20T07:10:31;14.10;99.90
13684;DHT22;6914;53.552;9.908;2023-05-20T07:12:58;14.20;99.90
13684;DHT22;6914;53.552;9.908;2023-05-20T07:15:26;14.40;99.90
13684;DHT22;6914;53.552;9.908;2023-05-20T07:17:57;14.60;99.90
13684;DHT22;6914;53.552;9.908;2023-05-20T07:20:25;14.70;99.90
13684;DHT22;6914;53.552;9.908;2023-05-20T07:22:52;14.60;99.90
13684;DHT22;6914;53.552;9.908;2023-05-20T07:25:20;15.10;99.90
13684;DHT22;6914;53.552;9.908;2023-05-20T07:27:47;15.20;99.90
13684;DHT22;6914;53.552;9.908;2023-05-20T07:30:14;15.30;99.90
13684;DHT22;6914;53.552;9.908;2023-05-20T07:32:41;15.30;99.90
13684;DHT22;6914;53.552;9.908;2023-05-20T07:35:08;15.30;99.90
13684;DHT22;6914;53.552;9.908;2023-05-20T07:37:35;15.10;99.90
13684;DHT22;6914;53.552;9.908;2023-05-20T07:40:03;15.00;99.90
13684;DHT22;6914;53.552;9.908;2023-05-20T07:42:31;15.00;99.90
13684;DHT22;6914;53.552;9.908;2023-05-20T07:44:58;15.20;99.90
13684;DHT22;6914;53.552;9.908;2023-05-20T07:47:32;15.20;99.90
13684;DHT22;6914;53.552;9.908;2023-05-20T07:49:59;15.30;99.90
13684;DHT22;6914;53.552;9.908;2023-05-20T07:52:26;15.20;99.90
13684;DHT22;6914;53.552;9.908;2023-05-20T07:54:57;15.30;99.90
13684;DHT22;6914;53.552;9.908;2023-05-20T07:57:26;15.20;99.90
13684;DHT22;6914;53.552;9.908;2023-05-20T07:59:58;15.10;99.90
13684;DHT22;6914;53.552;9.908;2023-05-20T08:02:26;15.20;99.90
13684;DHT22;6914;53.552;9.908;2023-05-20T08:04:55;15.50;99.90
13684;DHT22;6914;53.552;9.908;2023-05-20T08:07:23;15.40;99.90
13684;DHT22;6914;53.552;9.908;2023-05-20T08:09:50;15.40;99.90
13684;DHT22;6914;53.552;9.908;2023-05-20T08:12:17;15.50;99.90
13684;DHT22;6914;53.552;9.908;2023-05-20T08:14:44;15.70;99.90
13684;DHT22;6914;53.552;9.908;2023-05-20T08:17:12;15.70;99.90
13684;DHT22;6914;53.552;9.908;2023-05-20T08:19:39;15.30;99.90
13684;DHT22;6914;53.552;9.908;2023-05-20T08:22:06;15.90;99.90
13684;DHT22;6914;53.552;9.908;2023-05-20T08:27:04;16.30;99.90
13684;DHT22;6914;53.552;9.908;2023-05-20T08:29:31;16.50;99.90
13684;DHT22;6914;53.552;9.908;2023-05-20T08:31:58;16.50;99.90
13684;DHT22;6914;53.552;9.908;2023-05-20T08:34:26;16.60;99.90
13684;DHT22;6914;53.552;9.908;2023-05-20T08:36:54;16.30;99.90
13684;DHT22;6914;53.552;9.908;2023-05-20T08:39:22;16.00;99.90
13684;DHT22;6914;53.552;9.908;2023-05-20T08:41:49;16.30;99.90
13684;DHT22;6914;53.552;9.908;2023-05-20T08:44:17;16.40;99.90
13684;DHT22;6914;53.552;9.908;2023-05-20T08:46:45;16.30;99.90
13684;DHT22;6914;53.552;9.908;2023-05-20T08:49:12;16.40;99.90
13684;DHT22;6914;53.552;9.908;2023-05-20T08:51:40;16.50;99.90
13684;DHT22;6914;53.552;9.908;2023-05-20T08:54:08;17.00;99.90
13684;DHT22;6914;53.552;9.908;2023-05-20T08:56:36;16.60;99.90
13684;DHT22;6914;53.552;9.908;2023-05-20T08:59:03;16.70;99.90
13684;DHT22;6914;53.552;9.908;2023-05-20T09:01:31;17.00;99.90
13684;DHT22;6914;53.552;9.908;2023-05-20T09:03:58;16.80;99.90
13684;DHT22;6914;53.552;9.908;2023-05-20T09:06:25;17.10;99.90
13684;DHT22;6914;53.552;9.908;2023-05-20T09:08:53;17.20;99.90
13684;DHT22;6914;53.552;9.908;2023-05-20T09:11:20;17.00;99.90
13684;DHT22;6914;53.552;9.908;2023-05-20T09:13:49;17.40;99.40
13684;DHT22;6914;53.552;9.908;2023-05-20T09:16:15;17.60;98.90
13684;DHT22;6914;53.552;9.908;2023-05-20T09:18:42;17.90;96.10
13684;DHT22;6914;53.552;9.908;2023-05-20T09:21:09;18.10;95.30
13684;DHT22;6914;53.552;9.908;2023-05-20T09:23:37;17.80;95.00
13684;DHT22;6914;53.552;9.908;2023-05-20T09:26:05;17.90;96.00
13684;DHT22;6914;53.552;9.908;2023-05-20T09:28:32;17.80;94.50
13684;DHT22;6914;53.552;9.908;2023-05-20T09:31:00;17.40;94.90
13684;DHT22;6914;53.552;9.908;2023-05-20T09:33:29;17.40;96.90
13684;DHT22;6914;53.552;9.908;2023-05-20T09:36:02;17.30;99.60
13684;DHT22;6914;53.552;9.908;2023-05-20T09:38:32;17.30;99.90
13684;DHT22;6914;53.552;9.908;2023-05-20T09:41:07;15.70;97.40
13684;DHT22;6914;53.552;9.908;2023-05-20T09:43:34;16.70;99.90
13684;DHT22;6914;53.552;9.908;2023-05-20T09:46:03;16.80;99.90
13684;DHT22;6914;53.552;9.908;2023-05-20T09:48:30;17.00;99.90
13684;DHT22;6914;53.552;9.908;2023-05-20T09:50:58;16.90;99.90
13684;DHT22;6914;53.552;9.908;2023-05-20T09:53:26;17.00;99.90
13684;DHT22;6914;53.552;9.908;2023-05-20T09:55:54;17.00;98.80
13684;DHT22;6914;53.552;9.908;2023-05-20T09:58:23;17.10;99.90
13684;DHT22;6914;53.552;9.908;2023-05-20T10:00:51;17.30;99.90
13684;DHT22;6914;53.552;9.908;2023-05-20T10:03:21;17.20;99.90
13684;DHT22;6914;53.552;9.908;2023-05-20T10:06:05;17.10;99.90
13684;DHT22;6914;53.552;9.908;2023-05-20T10:08:48;17.30;99.90
13684;DHT22;6914;53.552;9.908;2023-05-20T10:11:24;17.10;99.90
13684;DHT22;6914;53.552;9.908;2023-05-20T10:14:16;17.10;99.90
13684;DHT22;6914;53.552;9.908;2023-05-20T10:16:49;17.10;99.90
13684;DHT22;6914;53.552;9.908;2023-05-20T10:19:26;17.10;99.90
13684;DHT22;6914;53.552;9.908;2023-05-20T10:21:59;16.90;97.50
13684;DHT22;6914;53.552;9.908;2023-05-20T10:24:31;17.10;97.60
13684;DHT22;6914;53.552;9.908;2023-05-20T10:27:00;17.10;97.00
13684;DHT22;6914;53.552;9.908;2023-05-20T10:29:41;17.20;98.10
13684;DHT22;6914;53.552;9.908;2023-05-20T10:32:08;17.30;97.30
13684;DHT22;6914;53.552;9.908;2023-05-20T10:34:44;17.10;99.90
13684;DHT22;6914;53.552;9.908;2023-05-20T10:37:21;17.10;99.90
13684;DHT22;6914;53.552;9.908;2023-05-20T10:39:48;17.10;99.90
13684;DHT22;6914;53.552;9.908;2023-05-20T10:42:15;17.30;99.90
13684;DHT22;6914;53.552;9.908;2023-05-20T10:44:54;17.40;99.90
13684;DHT22;6914;53.552;9.908;2023-05-20T10:47:21;17.20;99.90
13684;DHT22;6914;53.552;9.908;2023-05-20T10:49:48;17.50;98.90
13684;DHT22;6914;53.552;9.908;2023-05-20T10:52:16;17.50;99.90
13684;DHT22;6914;53.552;9.908;2023-05-20T10:54:44;17.40;99.90
13684;DHT22;6914;53.552;9.908;2023-05-20T10:57:12;17.20;99.90
13684;DHT22;6914;53.552;9.908;2023-05-20T10:59:40;17.20;99.90
13684;DHT22;6914;53.552;9.908;2023-05-20T11:02:15;17.10;99.90
13684;DHT22;6914;53.552;9.908;2023-05-20T11:04:43;17.20;99.90
13684;DHT22;6914;53.552;9.908;2023-05-20T11:07:11;17.10;99.90
13684;DHT22;6914;53.552;9.908;2023-05-20T11:09:38;17.80;99.90
13684;DHT22;6914;53.552;9.908;2023-05-20T11:12:05;17.80;99.00
13684;DHT22;6914;53.552;9.908;2023-05-20T11:14:33;17.70;96.70
13684;DHT22;6914;53.552;9.908;2023-05-20T11:17:06;17.80;96.90
13684;DHT22;6914;53.552;9.908;2023-05-20T11:19:37;17.80;97.00
13684;DHT22;6914;53.552;9.908;2023-05-20T11:22:06;18.00;95.70
13684;DHT22;6914;53.552;9.908;2023-05-20T11:24:33;17.80;95.50
13684;DHT22;6914;53.552;9.908;2023-05-20T11:27:01;17.60;96.00
13684;DHT22;6914;53.552;9.908;2023-05-20T11:29:31;17.50;98.10
13684;DHT22;6914;53.552;9.908;2023-05-20T11:31:59;17.30;99.20
13684;DHT22;6914;53.552;9.908;2023-05-20T11:34:33;17.00;99.90
13684;DHT22;6914;53.552;9.908;2023-05-20T11:37:06;17.20;99.90
13684;DHT22;6914;53.552;9.908;2023-05-20T11:39:32;16.80;99.90
13684;DHT22;6914;53.552;9.908;2023-05-20T11:41:59;17.30;99.90
13684;DHT22;6914;53.552;9.908;2023-05-20T11:44:27;17.30;99.90
13684;DHT22;6914;53.552;9.908;2023-05-20T11:46:59;17.20;99.90
13684;DHT22;6914;53.552;9.908;2023-05-20T11:49:28;17.20;99.80
13684;DHT22;6914;53.552;9.908;2023-05-20T11:51:57;15.40;98.80
13684;DHT22;6914;53.552;9.908;2023-05-20T11:54:30;17.30;99.70
13684;DHT22;6914;53.552;9.908;2023-05-20T11:57:02;17.00;99.90
13684;DHT22;6914;53.552;9.908;2023-05-20T11:59:31;16.70;99.90
13684;DHT22;6914;53.552;9.908;2023-05-20T12:01:58;16.80;99.90
13684;DHT22;6914;53.552;9.908;2023-05-20T12:04:31;16.90;99.90
13684;DHT22;6914;53.552;9.908;2023-05-20T12:06:58;17.00;99.90
13684;DHT22;6914;53.552;9.908;2023-05-20T12:09:31;17.10;99.90
13684;DHT22;6914;53.552;9.908;2023-05-20T12:11:58;17.00;99.90
13684;DHT22;6914;53.552;9.908;2023-05-20T12:14:25;17.10;99.90
13684;DHT22;6914;53.552;9.908;2023-05-20T12:16:52;17.10;99.90
13684;DHT22;6914;53.552;9.908;2023-05-20T12:19:20;17.10;99.90
13684;DHT22;6914;53.552;9.908;2023-05-20T12:21:47;17.00;99.90
13684;DHT22;6914;53.552;9.908;2023-05-20T12:24:26;17.10;99.90
13684;DHT22;6914;53.552;9.908;2023-05-20T12:26:58;17.20;99.90
13684;DHT22;6914;53.552;9.908;2023-05-20T12:29:24;17.30;99.90
13684;DHT22;6914;53.552;9.908;2023-05-20T12:31:54;17.60;99.90
13684;DHT22;6914;53.552;9.908;2023-05-20T12:34:23;17.70;96.10
13684;DHT22;6914;53.552;9.908;2023-05-20T12:36:50;18.00;96.90
13684;DHT22;6914;53.552;9.908;2023-05-20T12:39:17;17.70;99.90
13684;DHT22;6914;53.552;9.908;2023-05-20T12:41:44;17.50;99.90
13684;DHT22;6914;53.552;9.908;2023-05-20T12:44:13;17.40;99.90
13684;DHT22;6914;53.552;9.908;2023-05-20T12:46:41;17.80;99.90
13684;DHT22;6914;53.552;9.908;2023-05-20T12:49:08;16.50;99.90
13684;DHT22;6914;53.552;9.908;2023-05-20T12:51:35;18.00;99.90
13684;DHT22;6914;53.552;9.908;2023-05-20T12:54:04;18.30;96.60
13684;DHT22;6914;53.552;9.908;2023-05-20T12:56:31;18.20;93.60
13684;DHT22;6914;53.552;9.908;2023-05-20T12:58:58;18.60;93.00
13684;DHT22;6914;53.552;9.908;2023-05-20T13:01:27;18.60;92.50
13684;DHT22;6914;53.552;9.908;2023-05-20T13:03:55;18.60;92.90
13684;DHT22;6914;53.552;9.908;2023-05-20T13:06:23;18.60;93.20
13684;DHT22;6914;53.552;9.908;2023-05-20T13:08:50;18.50;94.20
13684;DHT22;6914;53.552;9.908;2023-05-20T13:11:17;18.30;94.30
13684;DHT22;6914;53.552;9.908;2023-05-20T13:13:44;18.00;97.30
13684;DHT22;6914;53.552;9.908;2023-05-20T13:16:11;18.10;97.30
13684;DHT22;6914;53.552;9.908;2023-05-20T13:18:39;18.20;97.00
13684;DHT22;6914;53.552;9.908;2023-05-20T13:21:06;17.90;96.00
13684;DHT22;6914;53.552;9.908;2023-05-20T13:23:35;17.00;97.10
13684;DHT22;6914;53.552;9.908;2023-05-20T13:26:02;17.90;99.90
13684;DHT22;6914;53.552;9.908;2023-05-20T13:28:30;18.30;97.60
13684;DHT22;6914;53.552;9.908;2023-05-20T13:30:57;18.70;95.80
13684;DHT22;6914;53.552;9.908;2023-05-20T13:33:24;18.40;95.90
13684;DHT22;6914;53.552;9.908;2023-05-20T13:35:52;18.50;95.90
13684;DHT22;6914;53.552;9.908;2023-05-20T13:38:19;18.50;97.30
13684;DHT22;6914;53.552;9.908;2023-05-20T13:40:46;18.60;96.70
13684;DHT22;6914;53.552;9.908;2023-05-20T13:43:13;18.30;98.30
13684;DHT22;6914;53.552;9.908;2023-05-20T13:45:41;18.30;96.20
13684;DHT22;6914;53.552;9.908;2023-05-20T13:48:08;18.40;95.70
13684;DHT22;6914;53.552;9.908;2023-05-20T13:50:35;18.30;97.80
13684;DHT22;6914;53.552;9.908;2023-05-20T13:53:04;18.30;96.90
13684;DHT22;6914;53.552;9.908;2023-05-20T13:55:31;18.40;99.00
13684;DHT22;6914;53.552;9.908;2023-05-20T13:57:58;18.40;99.90
13684;DHT22;6914;53.552;9.908;2023-05-20T14:00:25;18.20;99.90
13684;DHT22;6914;53.552;9.908;2023-05-20T14:02:52;18.10;99.90
13684;DHT22;6914;53.552;9.908;2023-05-20T14:05:19;18.00;99.90
13684;DHT22;6914;53.552;9.908;2023-05-20T14:07:45;18.00;99.90
13684;DHT22;6914;53.552;9.908;2023-05-20T14:10:14;18.10;99.90
13684;DHT22;6914;53.552;9.908;2023-05-20T14:12:41;18.10;99.90
13684;DHT22;6914;53.552;9.908;2023-05-20T14:15:12;18.10;99.90
13684;DHT22;6914;53.552;9.908;2023-05-20T14:17:39;18.00;99.90
13684;DHT22;6914;53.552;9.908;2023-05-20T14:20:07;17.90;99.90
13684;DHT22;6914;53.552;9.908;2023-05-20T14:22:35;18.00;99.90
13684;DHT22;6914;53.552;9.908;2023-05-20T14:25:02;17.70;99.90
13684;DHT22;6914;53.552;9.908;2023-05-20T14:27:30;17.80;99.90
13684;DHT22;6914;53.552;9.908;2023-05-20T14:29:58;17.70;99.90
13684;DHT22;6914;53.552;9.908;2023-05-20T14:32:25;17.80;99.90
13684;DHT22;6914;53.552;9.908;2023-05-20T14:34:52;17.80;99.90
13684;DHT22;6914;53.552;9.908;2023-05-20T14:37:19;18.00;99.90
13684;DHT22;6914;53.552;9.908;2023-05-20T14:39:47;18.10;99.90
13684;DHT22;6914;53.552;9.908;2023-05-20T14:42:14;18.10;99.90
13684;DHT22;6914;53.552;9.908;2023-05-20T14:44:42;18.00;99.90
13684;DHT22;6914;53.552;9.908;2023-05-20T14:47:09;18.20;99.90
13684;DHT22;6914;53.552;9.908;2023-05-20T14:49:36;17.30;99.90
13684;DHT22;6914;53.552;9.908;2023-05-20T14:52:04;18.10;99.90
13684;DHT22;6914;53.552;9.908;2023-05-20T14:54:32;17.70;99.90
13684;DHT22;6914;53.552;9.908;2023-05-20T14:56:59;17.60;99.90
13684;DHT22;6914;53.552;9.908;2023-05-20T14:59:26;17.70;99.90
13684;DHT22;6914;53.552;9.908;2023-05-20T15:01:55;17.50;99.90
13684;DHT22;6914;53.552;9.908;2023-05-20T15:04:21;17.40;99.90
13684;DHT22;6914;53.552;9.908;2023-05-20T15:06:48;17.80;99.90
13684;DHT22;6914;53.552;9.908;2023-05-20T15:09:16;17.40;99.90
13684;DHT22;6914;53.552;9.908;2023-05-20T15:11:43;17.60;99.90
13684;DHT22;6914;53.552;9.908;2023-05-20T15:14:10;17.50;99.90
13684;DHT22;6914;53.552;9.908;2023-05-20T15:16:38;17.30;99.90
13684;DHT22;6914;53.552;9.908;2023-05-20T15:19:06;17.20;99.90
13684;DHT22;6914;53.552;9.908;2023-05-20T15:21:33;17.00;99.90
13684;DHT22;6914;53.552;9.908;2023-05-20T15:24:00;16.80;99.90
13684;DHT22;6914;53.552;9.908;2023-05-20T15:26:29;16.70;99.90
13684;DHT22;6914;53.552;9.908;2023-05-20T15:28:56;17.00;99.90
13684;DHT22;6914;53.552;9.908;2023-05-20T15:31:23;17.20;99.90
13684;DHT22;6914;53.552;9.908;2023-05-20T15:33:50;16.80;99.90
13684;DHT22;6914;53.552;9.908;2023-05-20T15:36:18;17.50;99.90
13684;DHT22;6914;53.552;9.908;2023-05-20T15:38:45;17.10;99.90
13684;DHT22;6914;53.552;9.908;2023-05-20T15:41:12;17.40;99.90
13684;DHT22;6914;53.552;9.908;2023-05-20T15:43:40;17.60;99.90
13684;DHT22;6914;53.552;9.908;2023-05-20T15:46:07;17.60;99.90
13684;DHT22;6914;53.552;9.908;2023-05-20T15:48:35;17.60;99.90
13684;DHT22;6914;53.552;9.908;2023-05-20T15:51:02;17.40;99.90
13684;DHT22;6914;53.552;9.908;2023-05-20T15:53:30;17.40;99.90
13684;DHT22;6914;53.552;9.908;2023-05-20T15:55:57;17.50;99.90
13684;DHT22;6914;53.552;9.908;2023-05-20T15:58:24;17.20;99.90